createdAt,value
2019-05-11T00:01:09.742Z,1.00
2019-05-11T00:06:49.544Z,1.00
2019-05-11T00:09:30.248Z,0.98
2019-05-11T00:12:11.480Z,0.90
2019-05-11T00:14:52.500Z,1.00
2019-05-11T00:17:33.181Z,0.88
2019-05-11T00:20:14.101Z,1.12
2019-05-11T00:22:54.555Z,0.90
2019-05-11T00:25:35.312Z,1.10
2019-05-11T00:28:15.759Z,1.03
2019-05-11T00:30:56.101Z,0.93
2019-05-11T00:33:37.441Z,1.17
2019-05-11T00:36:18.237Z,1.40
2019-05-11T00:38:59.048Z,1.00
2019-05-11T00:41:39.749Z,1.02
2019-05-11T00:44:20.383Z,1.20
2019-05-11T00:47:01.207Z,0.90
2019-05-11T00:49:42.485Z,1.10
2019-05-11T00:52:22.853Z,0.90
2019-05-11T00:55:03.341Z,1.27
2019-05-11T00:57:43.793Z,0.90
2019-05-11T01:00:24.480Z,1.00
2019-05-11T01:03:05.036Z,1.22
2019-05-11T01:05:45.772Z,1.10
2019-05-11T01:08:26.180Z,1.02
2019-05-11T01:11:06.728Z,1.12
2019-05-11T01:13:47.218Z,1.32
2019-05-11T01:16:27.822Z,1.10
2019-05-11T01:19:08.250Z,1.15
2019-05-11T01:21:48.872Z,1.25
2019-05-11T01:24:29.626Z,1.25
2019-05-11T01:27:10.336Z,1.25
2019-05-11T01:29:51.160Z,1.27
2019-05-11T01:32:31.725Z,0.90
2019-05-11T01:35:12.589Z,1.05
2019-05-11T01:37:53.760Z,1.22
2019-05-11T01:40:34.412Z,1.10
2019-05-11T01:43:14.784Z,1.10
2019-05-11T01:45:55.431Z,1.20
2019-05-11T01:48:36.013Z,1.12
2019-05-11T01:51:16.464Z,1.25
2019-05-11T01:53:56.956Z,1.10
2019-05-11T01:56:37.460Z,1.05
2019-05-11T01:59:18.132Z,1.27
2019-05-11T02:01:58.826Z,1.12
2019-05-11T02:04:39.383Z,1.10
2019-05-11T02:07:20.221Z,1.20
2019-05-11T02:10:01.407Z,1.07
2019-05-11T02:12:42.588Z,0.98
2019-05-11T02:15:22.925Z,1.10
2019-05-11T02:18:03.719Z,1.47
2019-05-11T02:20:44.262Z,1.30
2019-05-11T02:23:25.204Z,1.37
2019-05-11T02:26:06.033Z,1.60
2019-05-11T02:28:46.590Z,1.40
2019-05-11T02:31:27.228Z,1.32
2019-05-11T02:34:08.168Z,1.40
2019-05-11T02:36:48.999Z,1.30
2019-05-11T02:39:30.468Z,1.30
2019-05-11T02:42:11.540Z,1.37
2019-05-11T02:44:52.395Z,1.35
2019-05-11T02:47:33.612Z,1.60
2019-05-11T02:50:14.370Z,1.12
2019-05-11T02:52:55.086Z,1.60
2019-05-11T02:55:35.675Z,1.30
2019-05-11T02:58:16.508Z,1.32
2019-05-11T03:00:57.330Z,1.40
2019-05-11T03:03:38.306Z,1.40
2019-05-11T03:06:19.565Z,1.50
2019-05-11T03:09:00.368Z,1.50
2019-05-11T03:11:54.922Z,1.20
2019-05-11T03:14:23.719Z,1.40
2019-05-11T03:20:17.706Z,1.30
2019-05-11T03:22:58.497Z,1.37
2019-05-11T03:25:39.047Z,1.60
2019-05-11T03:28:19.701Z,1.37
2019-05-11T03:31:00.638Z,1.52
2019-05-11T03:33:41.134Z,1.20
2019-05-11T03:36:21.812Z,1.50
2019-05-11T03:39:02.623Z,1.27
2019-05-11T03:41:43.662Z,1.20
2019-05-11T03:44:24.310Z,1.10
2019-05-11T03:47:05.150Z,1.03
2019-05-11T03:49:45.384Z,1.50
2019-05-11T03:52:25.949Z,1.10
2019-05-11T03:55:06.296Z,1.12
2019-05-11T03:57:46.928Z,1.00
2019-05-11T04:00:27.363Z,1.20
2019-05-11T04:03:08.424Z,1.45
2019-05-11T04:05:49.187Z,1.70
2019-05-11T04:08:29.950Z,1.60
2019-05-11T04:11:10.994Z,1.90
2019-05-11T04:13:51.682Z,1.32
2019-05-11T04:16:32.819Z,1.10
2019-05-11T04:19:13.457Z,1.22
2019-05-11T04:21:54.765Z,1.50
2019-05-11T04:24:35.860Z,1.37
2019-05-11T04:27:19.516Z,1.20
2019-05-11T04:29:58.608Z,1.60
2019-05-11T04:32:39.212Z,1.35
2019-05-11T04:35:20.415Z,1.07
2019-05-11T04:38:00.733Z,1.65
2019-05-11T04:40:41.276Z,1.27
2019-05-11T04:43:21.888Z,1.20
2019-05-11T04:46:02.409Z,1.00
2019-05-11T04:48:42.682Z,1.35
2019-05-11T04:51:23.567Z,1.50
2019-05-11T04:54:04.441Z,1.25
2019-05-11T04:56:44.785Z,1.32
2019-05-11T04:59:25.527Z,1.10
2019-05-11T05:02:05.844Z,1.07
2019-05-11T05:04:46.568Z,1.00
2019-05-11T05:07:27.423Z,1.20
2019-05-11T05:10:07.987Z,1.05
2019-05-11T05:12:51.401Z,1.20
2019-05-11T05:15:31.488Z,1.10
2019-05-11T05:18:12.087Z,1.35
2019-05-11T05:20:52.551Z,1.07
2019-05-11T05:23:33.550Z,1.10
2019-05-11T05:26:14.631Z,1.10
2019-05-11T05:28:55.430Z,0.90
2019-05-11T05:31:35.857Z,0.95
2019-05-11T05:34:16.573Z,0.70
2019-05-11T05:36:57.552Z,0.80
2019-05-11T05:39:38.461Z,0.80
2019-05-11T05:42:19.033Z,0.90
2019-05-11T05:44:59.884Z,1.15
2019-05-11T05:47:40.203Z,0.78
2019-05-11T05:50:20.880Z,1.02
2019-05-11T05:53:01.968Z,1.15
2019-05-11T05:55:42.508Z,1.20
2019-05-11T05:58:23.317Z,0.90
2019-05-11T06:01:04.552Z,1.07
2019-05-11T06:03:45.096Z,1.00
2019-05-11T06:06:25.768Z,1.20
2019-05-11T06:09:06.974Z,1.10
2019-05-11T06:11:47.883Z,1.10
2019-05-11T06:14:28.348Z,1.00
2019-05-11T06:17:09.097Z,1.07
2019-05-11T06:19:49.696Z,0.90
2019-05-11T06:22:30.562Z,1.20
2019-05-11T06:25:12.068Z,1.05
2019-05-11T06:27:53.262Z,1.20
2019-05-11T06:30:33.681Z,1.10
2019-05-11T06:33:14.324Z,0.90
2019-05-11T06:35:54.944Z,1.27
2019-05-11T06:38:35.856Z,1.20
2019-05-11T06:41:16.807Z,1.20
2019-05-11T06:44:01.666Z,1.00
2019-05-11T06:46:40.093Z,1.00
2019-05-11T06:49:20.716Z,0.90
2019-05-11T06:52:01.243Z,0.90
2019-05-11T06:54:41.963Z,0.90
2019-05-11T06:57:22.423Z,1.22
2019-05-11T07:00:03.445Z,1.30
2019-05-11T07:02:44.607Z,1.00
2019-05-11T07:05:25.199Z,1.20
2019-05-11T07:08:06.099Z,1.25
2019-05-11T07:10:46.470Z,1.15
2019-05-11T07:13:27.370Z,1.40
2019-05-11T07:16:08.015Z,1.20
2019-05-11T07:18:48.514Z,1.20
2019-05-11T07:21:29.412Z,1.40
2019-05-11T07:24:08.556Z,1.10
2019-05-11T07:26:56.593Z,1.20
2019-05-11T07:29:44.591Z,1.12
2019-05-11T07:32:32.655Z,1.20
2019-05-11T07:35:20.658Z,1.10
2019-05-11T07:38:08.644Z,1.22
2019-05-11T07:40:58.218Z,1.30
2019-05-11T07:43:48.470Z,1.30
2019-05-11T07:46:37.702Z,1.30
2019-05-11T07:49:26.283Z,1.37
2019-05-11T07:52:14.251Z,1.10
2019-05-11T07:55:02.650Z,1.20
2019-05-11T07:57:50.998Z,1.55
2019-05-11T08:00:39.941Z,1.10
2019-05-11T08:03:28.746Z,1.47
2019-05-11T08:06:18.319Z,1.20
2019-05-11T08:09:08.301Z,1.07
2019-05-11T08:11:58.405Z,1.00
2019-05-11T08:15:00.110Z,0.90
2019-05-11T08:17:38.120Z,0.93
2019-05-11T08:20:27.909Z,1.07
2019-05-11T08:23:17.888Z,1.00
2019-05-11T08:26:05.504Z,1.00
2019-05-11T08:28:48.542Z,0.98
2019-05-11T08:31:29.045Z,1.17
2019-05-11T08:34:09.822Z,1.02
2019-05-11T08:36:50.706Z,1.10
2019-05-11T08:39:31.115Z,0.90
2019-05-11T08:42:11.788Z,0.90
2019-05-11T08:44:52.725Z,1.40
2019-05-11T08:47:33.587Z,1.00
2019-05-11T08:50:15.425Z,1.30
2019-05-11T08:52:58.133Z,1.32
2019-05-11T08:55:38.424Z,1.20
2019-05-11T08:58:19.648Z,0.80
2019-05-11T09:01:00.918Z,1.10
2019-05-11T09:03:41.609Z,1.05
2019-05-11T09:06:22.250Z,1.00
2019-05-11T09:09:03.726Z,1.10
2019-05-11T09:11:44.008Z,1.10
2019-05-11T09:14:24.941Z,1.02
2019-05-11T09:17:07.659Z,1.02
2019-05-11T09:19:48.217Z,1.17
2019-05-11T09:22:28.620Z,1.25
2019-05-11T09:25:09.107Z,1.00
2019-05-11T09:27:49.763Z,1.10
2019-05-11T09:30:30.480Z,1.07
2019-05-11T09:33:11.050Z,0.98
2019-05-11T09:35:53.500Z,1.22
2019-05-11T09:38:34.075Z,0.70
2019-05-11T09:41:15.257Z,1.00
2019-05-11T09:43:55.775Z,0.98
2019-05-11T09:46:38.356Z,0.90
2019-05-11T09:49:19.163Z,0.90
2019-05-11T09:51:59.588Z,0.78
2019-05-11T09:54:40.121Z,0.65
2019-05-11T09:57:20.693Z,0.53
2019-05-11T10:00:01.935Z,0.80
2019-05-11T10:02:42.616Z,0.72
2019-05-11T10:05:23.674Z,1.05
2019-05-11T10:08:04.290Z,0.93
2019-05-11T10:10:44.999Z,0.82
2019-05-11T10:13:27.841Z,0.90
2019-05-11T10:16:10.700Z,0.98
2019-05-11T10:18:51.623Z,0.90
2019-05-11T10:21:32.546Z,1.00
2019-05-11T10:24:13.963Z,0.80
2019-05-11T10:26:54.404Z,0.80
2019-05-11T10:29:35.267Z,1.07
2019-05-11T10:32:18.311Z,0.90
2019-05-11T10:34:58.928Z,0.60
2019-05-11T10:37:39.515Z,0.70
2019-05-11T10:40:20.220Z,0.85
2019-05-11T10:43:00.947Z,0.90
2019-05-11T10:45:41.919Z,0.70
2019-05-11T10:48:22.314Z,0.80
2019-05-11T10:51:03.127Z,0.78
2019-05-11T10:53:44.051Z,0.90
2019-05-11T10:56:24.647Z,0.60
2019-05-11T10:59:07.839Z,0.75
2019-05-11T11:01:48.446Z,0.60
2019-05-11T11:04:29.099Z,0.80
2019-05-11T11:07:10.067Z,0.70
2019-05-11T11:09:50.840Z,0.60
2019-05-11T11:12:31.589Z,0.50
2019-05-11T11:15:12.303Z,0.40
2019-05-11T11:17:53.034Z,0.70
2019-05-11T11:20:34.129Z,0.55
2019-05-11T11:23:17.282Z,0.60
2019-05-11T11:25:58.623Z,0.50
2019-05-11T11:28:40.124Z,0.50
2019-05-11T11:31:09.567Z,0.70
2019-05-11T11:33:58.438Z,0.42
2019-05-11T11:36:48.122Z,0.53
2019-05-11T11:39:38.842Z,0.50
2019-05-11T11:42:28.309Z,0.78
2019-05-11T11:45:18.265Z,0.60
2019-05-11T11:48:08.642Z,0.70
2019-05-11T11:50:58.506Z,0.60
2019-05-11T11:53:47.766Z,0.70
2019-05-11T11:56:37.985Z,0.60
2019-05-11T11:59:28.393Z,0.60
2019-05-11T12:02:15.693Z,0.90
2019-05-11T12:05:04.067Z,0.60
2019-05-11T12:07:52.315Z,0.63
2019-05-11T12:10:40.563Z,0.70
2019-05-11T12:13:29.708Z,0.70
2019-05-11T12:16:18.984Z,0.60
2019-05-11T12:19:08.366Z,0.75
2019-05-11T12:22:08.707Z,0.60
2019-05-11T12:24:59.022Z,0.80
2019-05-11T12:27:49.178Z,0.70
2019-05-11T12:30:38.717Z,0.70
2019-05-11T12:33:27.970Z,0.68
2019-05-11T12:36:18.496Z,0.70
2019-05-11T12:39:08.424Z,0.50
2019-05-11T12:41:58.248Z,0.65
2019-05-11T12:44:48.186Z,0.80
2019-05-11T12:47:38.522Z,0.60
2019-05-11T12:50:28.593Z,0.80
2019-05-11T12:53:18.609Z,0.75
2019-05-11T12:56:08.330Z,0.80
2019-05-11T12:58:58.203Z,0.65
2019-05-11T13:01:48.376Z,0.80
2019-05-11T13:04:35.963Z,0.68
2019-05-11T13:07:24.017Z,0.50
2019-05-11T13:10:12.218Z,0.90
2019-05-11T13:13:02.638Z,0.70
2019-05-11T13:15:50.172Z,0.57
2019-05-11T13:18:38.539Z,0.70
2019-05-11T13:21:28.664Z,0.80
2019-05-11T13:24:18.733Z,0.85
2019-05-11T13:27:08.321Z,0.62
2019-05-11T13:29:49.983Z,0.60
2019-05-11T13:32:30.924Z,0.80
2019-05-11T13:35:11.871Z,0.80
2019-05-11T13:37:53.143Z,0.53
2019-05-11T13:40:33.743Z,0.80
2019-05-11T13:43:14.367Z,0.72
2019-05-11T13:45:54.846Z,0.50
2019-05-11T13:48:35.797Z,0.70
2019-05-11T13:54:29.613Z,0.97
2019-05-11T13:57:09.667Z,0.80
2019-05-11T13:59:50.554Z,0.60
2019-05-11T14:02:31.557Z,0.60
2019-05-11T14:05:12.376Z,0.85
2019-05-11T14:07:53.259Z,0.60
2019-05-11T14:10:33.734Z,0.60
2019-05-11T14:13:14.745Z,0.60
2019-05-11T14:15:55.715Z,0.70
2019-05-11T14:18:38.384Z,0.70
2019-05-11T14:21:19.112Z,0.88
2019-05-11T14:23:59.744Z,0.80
2019-05-11T14:26:40.132Z,0.73
2019-05-11T14:29:20.778Z,0.78
2019-05-11T14:32:01.261Z,0.70
2019-05-11T14:34:41.799Z,0.70
2019-05-11T14:37:22.178Z,0.70
2019-05-11T14:40:02.940Z,0.60
2019-05-11T14:42:43.764Z,0.60
2019-05-11T14:45:24.285Z,0.70
2019-05-11T14:48:19.387Z,0.60
2019-05-11T14:50:48.949Z,0.72
2019-05-11T14:53:29.553Z,0.80
2019-05-11T14:56:10.436Z,0.60
2019-05-11T14:58:50.799Z,0.70
2019-05-11T15:01:31.549Z,0.80
2019-05-11T15:04:12.340Z,0.62
2019-05-11T15:06:53.020Z,0.70
2019-05-11T15:09:33.707Z,0.80
2019-05-11T15:12:14.572Z,0.50
2019-05-11T15:14:55.431Z,0.60
2019-05-11T15:17:36.432Z,0.78
2019-05-11T15:20:17.685Z,0.70
2019-05-11T15:22:58.859Z,0.80
2019-05-11T15:25:39.300Z,0.50
2019-05-11T15:28:20.235Z,0.80
2019-05-11T15:31:01.576Z,0.78
2019-05-11T15:33:42.161Z,1.00
2019-05-11T15:36:22.544Z,0.80
2019-05-11T15:39:03.475Z,0.88
2019-05-11T15:41:44.404Z,0.78
2019-05-11T15:44:25.233Z,0.70
2019-05-11T15:47:07.757Z,0.83
2019-05-11T15:49:48.651Z,0.70
2019-05-11T15:52:29.680Z,0.78
2019-05-11T15:55:10.407Z,0.95
2019-05-11T15:57:50.951Z,1.20
2019-05-11T16:00:31.628Z,0.90
2019-05-11T16:03:12.368Z,0.95
2019-05-11T16:05:53.111Z,1.05
2019-05-11T16:08:33.879Z,0.90
2019-05-11T16:11:14.764Z,1.00
2019-05-11T16:13:55.592Z,1.00
2019-05-11T16:16:38.728Z,0.90
2019-05-11T16:19:19.348Z,1.00
2019-05-11T16:21:59.968Z,0.90
2019-05-11T16:24:40.496Z,1.10
2019-05-11T16:27:21.196Z,1.02
2019-05-11T16:30:02.508Z,0.95
2019-05-11T16:32:43.171Z,0.98
2019-05-11T16:35:23.990Z,0.90
2019-05-11T16:38:04.649Z,0.90
2019-05-11T16:40:45.405Z,0.98
2019-05-11T16:43:27.962Z,0.95
2019-05-11T16:46:08.851Z,1.00
2019-05-11T16:48:49.262Z,0.90
2019-05-11T16:51:29.951Z,1.17
2019-05-11T16:54:10.575Z,0.82
2019-05-11T16:56:51.525Z,0.80
2019-05-11T16:59:32.458Z,1.00
2019-05-11T17:02:13.265Z,1.00
2019-05-11T17:04:54.308Z,0.78
2019-05-11T17:07:34.872Z,0.85
2019-05-11T17:10:17.892Z,1.00
2019-05-11T17:12:58.412Z,1.02
2019-05-11T17:15:39.052Z,0.93
2019-05-11T17:18:20.158Z,0.90
2019-05-11T17:21:01.020Z,0.70
2019-05-11T17:23:41.855Z,1.00
2019-05-11T17:26:22.773Z,0.90
2019-05-11T17:29:04.059Z,1.17
2019-05-11T17:31:44.458Z,0.90
2019-05-11T17:34:25.288Z,1.00
2019-05-11T17:37:08.372Z,1.00
2019-05-11T17:39:48.784Z,0.75
2019-05-11T17:42:29.389Z,0.82
2019-05-11T17:45:10.587Z,1.00
2019-05-11T17:47:51.880Z,0.90
2019-05-11T17:50:32.634Z,1.20
2019-05-11T17:53:13.540Z,0.95
2019-05-11T17:55:54.507Z,1.10
2019-05-11T17:58:37.661Z,1.07
2019-05-11T18:01:18.659Z,1.17
2019-05-11T18:03:59.863Z,1.07
2019-05-11T18:06:40.551Z,1.20
2019-05-11T18:09:21.334Z,1.00
2019-05-11T18:12:02.432Z,1.12
2019-05-11T18:14:43.586Z,1.03
2019-05-11T18:17:24.289Z,1.07
2019-05-11T18:20:14.637Z,0.80
2019-05-11T18:22:49.112Z,0.80
2019-05-11T18:25:29.855Z,0.90
2019-05-11T18:28:13.853Z,0.80
2019-05-11T18:30:52.874Z,1.10
2019-05-11T18:33:34.388Z,1.00
2019-05-11T18:36:14.915Z,0.83
2019-05-11T18:38:55.384Z,1.10
2019-05-11T18:41:38.820Z,1.40
2019-05-11T18:44:18.929Z,1.00
2019-05-11T18:46:59.436Z,1.20
2019-05-11T18:49:40.128Z,1.05
2019-05-11T18:52:20.753Z,1.00
2019-05-11T18:55:01.221Z,1.20
2019-05-11T18:57:41.536Z,0.95
2019-05-11T19:00:22.195Z,1.00
2019-05-11T19:03:02.647Z,1.10
2019-05-11T19:05:43.571Z,0.93
2019-05-11T19:08:24.853Z,1.10
2019-05-11T19:11:06.013Z,1.15
2019-05-11T19:13:47.835Z,1.10
2019-05-11T19:16:28.887Z,1.20
2019-05-11T19:19:09.431Z,1.10
2019-05-11T19:21:50.001Z,0.90
2019-05-11T19:24:30.640Z,1.10
2019-05-11T19:27:11.411Z,1.10
2019-05-11T19:29:51.992Z,0.98
2019-05-11T19:32:32.797Z,0.98
2019-05-11T19:35:13.540Z,0.90
2019-05-11T19:37:54.274Z,0.80
2019-05-11T19:40:34.811Z,1.10
2019-05-11T19:43:15.462Z,1.15
2019-05-11T19:45:58.181Z,1.30
2019-05-11T19:48:38.724Z,1.00
2019-05-11T19:51:19.375Z,1.30
2019-05-11T19:54:00.327Z,0.95
2019-05-11T19:56:40.687Z,1.40
2019-05-11T19:59:21.248Z,1.20
2019-05-11T20:02:02.296Z,1.42
2019-05-11T20:04:43.412Z,0.85
2019-05-11T20:07:23.872Z,1.20
2019-05-11T20:10:04.639Z,0.88
2019-05-11T20:12:45.484Z,0.90
2019-05-11T20:15:26.074Z,1.17
2019-05-11T20:18:08.024Z,0.88
2019-05-11T20:20:48.948Z,1.00
2019-05-11T20:23:29.313Z,1.00
2019-05-11T20:26:09.775Z,1.27
2019-05-11T20:28:50.252Z,1.37
2019-05-11T20:31:31.415Z,1.00
2019-05-11T20:34:12.197Z,1.10
2019-05-11T20:36:52.768Z,1.02
2019-05-11T20:39:33.257Z,1.05
2019-05-11T20:42:13.883Z,1.20
2019-05-11T20:44:54.550Z,1.25
2019-05-11T20:47:35.172Z,1.15
2019-05-11T20:50:15.553Z,1.10
2019-05-11T20:52:58.252Z,1.10
2019-05-11T20:55:39.031Z,1.32
2019-05-11T20:58:19.737Z,1.40
2019-05-11T21:01:00.769Z,1.10
2019-05-11T21:03:41.508Z,1.10
2019-05-11T21:06:22.185Z,1.10
2019-05-11T21:09:03.407Z,1.37
2019-05-11T21:11:44.393Z,1.10
2019-05-11T21:14:24.911Z,1.02
2019-05-11T21:17:05.261Z,1.20
2019-05-11T21:19:47.789Z,0.93
2019-05-11T21:22:28.544Z,1.40
2019-05-11T21:25:09.667Z,1.10
2019-05-11T21:27:50.352Z,1.40
2019-05-11T21:30:31.043Z,1.12
2019-05-11T21:33:11.459Z,1.65
2019-05-11T21:35:52.119Z,1.00
2019-05-11T21:38:32.756Z,1.20
2019-05-11T21:41:13.764Z,1.30
2019-05-11T21:43:54.391Z,1.10
2019-05-11T21:46:35.491Z,1.00
2019-05-11T21:49:18.450Z,0.80
2019-05-11T21:52:04.529Z,1.12
2019-05-11T21:54:42.632Z,1.15
2019-05-11T21:57:23.044Z,1.40
2019-05-11T22:00:03.919Z,1.30
2019-05-11T22:02:44.205Z,1.30
2019-05-11T22:05:25.051Z,1.05
2019-05-11T22:08:05.401Z,1.20
2019-05-11T22:10:45.951Z,1.30
2019-05-11T22:13:28.796Z,1.30
2019-05-11T22:16:10.229Z,1.27
2019-05-11T22:18:50.933Z,1.20
2019-05-11T22:21:32.044Z,1.10
2019-05-11T22:24:12.447Z,1.30
2019-05-11T22:26:53.403Z,1.20
2019-05-11T22:29:33.645Z,1.50
2019-05-11T22:32:14.664Z,1.07
2019-05-11T22:34:55.179Z,1.52
2019-05-11T22:37:38.374Z,1.52
2019-05-11T22:40:18.021Z,1.52
2019-05-11T22:43:01.142Z,1.30
2019-05-11T22:45:40.992Z,1.50
2019-05-11T22:48:22.135Z,1.67
2019-05-11T22:51:02.444Z,1.27
2019-05-11T22:53:47.006Z,1.27
2019-05-11T22:56:28.336Z,1.20
2019-05-11T22:59:08.400Z,1.30
2019-05-11T23:01:48.704Z,1.40
2019-05-11T23:04:29.336Z,1.30
2019-05-11T23:07:10.267Z,1.27
2019-05-11T23:09:50.900Z,1.30
2019-05-11T23:12:31.488Z,1.27
2019-05-11T23:15:13.160Z,1.20
2019-05-11T23:17:54.218Z,1.40
2019-05-11T23:20:35.112Z,1.05
2019-05-11T23:23:17.685Z,1.80
2019-05-11T23:25:58.699Z,1.35
2019-05-11T23:28:39.828Z,1.20
2019-05-11T23:31:20.224Z,1.40
2019-05-11T23:34:01.003Z,1.40
2019-05-11T23:36:41.560Z,1.50
2019-05-11T23:39:22.327Z,1.37
2019-05-11T23:42:03.400Z,1.40
2019-05-11T23:44:45.813Z,1.60
2019-05-11T23:47:28.808Z,1.25
2019-05-11T23:50:09.976Z,1.40
2019-05-11T23:53:05.478Z,1.10
2019-05-11T23:55:32.942Z,1.30
2019-05-11T23:58:13.829Z,1.20
